createdAt,value
2017-12-30T00:00:57.242Z,78.8
2017-12-30T00:17:33.035Z,79.2
2017-12-30T00:34:08.925Z,78.8
2017-12-30T00:50:45.070Z,78.8
2017-12-30T01:07:20.839Z,78.8
2017-12-30T01:23:56.752Z,78.4
2017-12-30T01:40:32.719Z,78.0
2017-12-30T01:57:08.649Z,78.0
2017-12-30T02:13:44.587Z,77.6
2017-12-30T02:30:20.600Z,76.8
2017-12-30T02:46:56.591Z,76.4
2017-12-30T03:03:32.626Z,76.0
2017-12-30T03:20:08.421Z,76.0
2017-12-30T03:36:43.976Z,76.0
2017-12-30T03:53:19.493Z,75.6
2017-12-30T04:09:54.827Z,76.0
2017-12-30T04:26:30.018Z,75.6
2017-12-30T04:43:05.281Z,76.0
2017-12-30T04:59:40.557Z,76.0
2017-12-30T05:16:15.846Z,76.0
2017-12-30T05:32:51.141Z,76.0
2017-12-30T05:49:26.472Z,75.6
2017-12-30T06:06:01.934Z,75.2
2017-12-30T06:22:37.356Z,75.6
2017-12-30T06:39:12.912Z,75.6
2017-12-30T06:55:48.413Z,75.6
2017-12-30T07:12:23.894Z,76.0
2017-12-30T07:28:59.391Z,76.8
2017-12-30T07:45:34.949Z,76.8
2017-12-30T08:02:10.041Z,77.2
2017-12-30T08:18:45.409Z,78.0
2017-12-30T08:35:20.614Z,78.0
2017-12-30T08:51:55.983Z,78.4
2017-12-30T09:08:31.402Z,78.8
2017-12-30T09:25:06.825Z,78.8
2017-12-30T09:41:42.264Z,79.2
2017-12-30T09:58:17.781Z,79.6
2017-12-30T10:14:53.383Z,80.0
2017-12-30T10:31:29.142Z,80.8
2017-12-30T10:48:05.090Z,81.2
2017-12-30T11:04:41.378Z,81.2
2017-12-30T11:21:17.851Z,82.0
2017-12-30T11:37:54.612Z,82.8
2017-12-30T11:54:31.676Z,83.2
2017-12-30T12:11:09.236Z,83.6
2017-12-30T12:27:47.190Z,84.0
2017-12-30T12:44:25.382Z,84.4
2017-12-30T13:01:04.048Z,84.8
2017-12-30T13:17:43.021Z,84.8
2017-12-30T13:34:22.366Z,84.8
2017-12-30T13:51:02.026Z,84.4
2017-12-30T14:07:42.444Z,84.0
2017-12-30T14:24:22.566Z,83.6
2017-12-30T14:41:03.185Z,82.8
2017-12-30T14:57:48.671Z,82.0
2017-12-30T15:14:24.650Z,81.2
2017-12-30T15:31:05.960Z,80.8
2017-12-30T15:47:45.131Z,80.4
2017-12-30T16:04:25.317Z,79.6
2017-12-30T16:21:05.840Z,79.2
2017-12-30T16:37:45.895Z,79.2
2017-12-30T16:54:26.324Z,79.6
2017-12-30T17:11:06.273Z,79.6
2017-12-30T17:27:46.402Z,79.6
2017-12-30T17:44:26.451Z,79.6
2017-12-30T18:01:07.909Z,79.6
2017-12-30T18:17:46.667Z,80.0
2017-12-30T18:34:26.535Z,80.4
2017-12-30T18:51:06.608Z,79.6
2017-12-30T19:07:46.780Z,79.6
2017-12-30T19:24:27.096Z,79.6
2017-12-30T19:41:07.531Z,79.6
2017-12-30T19:57:48.684Z,78.8
2017-12-30T20:14:30.714Z,78.4
2017-12-30T20:31:12.874Z,78.0
2017-12-30T20:47:49.911Z,77.6
2017-12-30T21:04:33.246Z,76.8
2017-12-30T21:21:11.052Z,76.8
2017-12-30T21:37:51.534Z,76.8
2017-12-30T21:54:32.043Z,76.8
2017-12-30T22:11:12.506Z,77.2
2017-12-30T22:27:53.148Z,77.2
2017-12-30T22:44:33.451Z,76.8
2017-12-30T23:01:14.030Z,77.2
2017-12-30T23:17:54.512Z,77.2
2017-12-30T23:34:35.021Z,77.2
2017-12-30T23:51:15.211Z,77.2
